createdAt,value
2023-04-21T00:01:12.973Z,95.60
2023-04-21T00:03:40.322Z,96.00
2023-04-21T00:06:07.658Z,96.00
2023-04-21T00:08:37.135Z,96.20
2023-04-21T00:11:04.516Z,96.20
2023-04-21T00:13:31.560Z,95.50
2023-04-21T00:15:58.530Z,96.20
2023-04-21T00:18:25.599Z,95.90
2023-04-21T00:20:52.568Z,96.00
2023-04-21T00:23:19.679Z,96.30
2023-04-21T00:25:46.613Z,95.80
2023-04-21T00:28:13.302Z,95.50
2023-04-21T00:30:40.040Z,95.70
2023-04-21T00:33:07.585Z,95.60
2023-04-21T00:35:34.315Z,95.70
2023-04-21T00:38:18.087Z,96.20
2023-04-21T00:40:45.014Z,95.90
2023-04-21T00:43:11.960Z,96.10
2023-04-21T00:45:38.876Z,96.30
2023-04-21T00:48:17.397Z,95.90
2023-04-21T00:50:44.836Z,96.20
2023-04-21T00:53:12.688Z,96.20
2023-04-21T00:55:39.498Z,95.90
2023-04-21T00:58:06.332Z,96.10
2023-04-21T01:00:33.533Z,96.20
2023-04-21T01:03:01.070Z,95.60
2023-04-21T01:05:27.939Z,96.00
2023-04-21T01:07:55.028Z,95.80
2023-04-21T01:10:22.132Z,95.60
2023-04-21T01:12:49.205Z,96.20
2023-04-21T01:15:17.618Z,95.80
2023-04-21T01:17:45.677Z,96.30
2023-04-21T01:20:13.489Z,96.20
2023-04-21T01:22:41.874Z,96.30
2023-04-21T01:25:09.286Z,96.10
2023-04-21T01:27:37.939Z,96.20
2023-04-21T01:30:05.313Z,96.10
2023-04-21T01:32:32.402Z,96.20
2023-04-21T01:34:59.798Z,96.00
2023-04-21T01:37:28.993Z,95.70
2023-04-21T01:39:56.968Z,96.20
2023-04-21T01:42:24.946Z,95.80
2023-04-21T01:44:53.817Z,96.00
2023-04-21T01:47:23.690Z,96.40
2023-04-21T01:49:50.596Z,96.00
2023-04-21T01:52:17.465Z,95.90
2023-04-21T01:54:44.477Z,95.90
2023-04-21T01:57:11.479Z,95.80
2023-04-21T01:59:38.566Z,96.30
2023-04-21T02:02:05.703Z,96.20
2023-04-21T02:04:32.849Z,96.10
2023-04-21T02:06:59.884Z,96.20
2023-04-21T02:09:26.795Z,96.30
2023-04-21T02:11:55.329Z,96.10
2023-04-21T02:14:22.238Z,96.20
2023-04-21T02:16:49.254Z,96.00
2023-04-21T02:19:16.364Z,96.10
2023-04-21T02:21:43.276Z,96.00
2023-04-21T02:24:10.306Z,96.20
2023-04-21T02:26:37.259Z,96.30
2023-04-21T02:29:04.207Z,96.20
2023-04-21T02:31:31.257Z,96.10
2023-04-21T02:33:58.979Z,96.00
2023-04-21T02:36:26.262Z,96.20
2023-04-21T02:38:53.088Z,96.10
2023-04-21T02:41:19.937Z,96.20
2023-04-21T02:43:46.703Z,96.30
2023-04-21T02:46:13.679Z,96.00
2023-04-21T02:48:40.591Z,96.30
2023-04-21T02:51:13.663Z,96.40
2023-04-21T02:53:40.954Z,96.00
2023-04-21T02:56:08.932Z,95.90
2023-04-21T02:58:36.476Z,96.20
2023-04-21T03:01:04.056Z,96.30
2023-04-21T03:03:31.747Z,96.10
2023-04-21T03:05:59.017Z,96.30
2023-04-21T03:08:26.077Z,96.30
2023-04-21T03:10:53.307Z,95.80
2023-04-21T03:13:20.363Z,96.30
2023-04-21T03:15:47.583Z,96.30
2023-04-21T03:18:14.309Z,96.40
2023-04-21T03:20:41.259Z,96.40
2023-04-21T03:23:08.254Z,96.40
2023-04-21T03:25:34.994Z,96.30
2023-04-21T03:28:01.909Z,96.10
2023-04-21T03:30:28.714Z,96.50
2023-04-21T03:32:55.833Z,96.50
2023-04-21T03:35:22.875Z,96.70
2023-04-21T03:37:52.612Z,96.20
2023-04-21T03:40:19.402Z,96.50
2023-04-21T03:42:46.293Z,96.60
2023-04-21T03:45:13.032Z,96.50
2023-04-21T03:47:39.761Z,96.50
2023-04-21T03:50:07.025Z,96.60
2023-04-21T03:52:33.855Z,96.10
2023-04-21T03:55:00.771Z,96.40
2023-04-21T03:57:27.548Z,96.50
2023-04-21T03:59:54.329Z,96.30
2023-04-21T04:02:21.305Z,96.60
2023-04-21T04:04:48.913Z,96.10
2023-04-21T04:07:17.660Z,96.30
2023-04-21T04:09:44.807Z,96.40
2023-04-21T04:12:11.930Z,96.50
2023-04-21T04:14:39.655Z,96.20
2023-04-21T04:17:06.423Z,96.30
2023-04-21T04:19:33.471Z,96.60
2023-04-21T04:22:01.188Z,96.60
2023-04-21T04:24:28.134Z,96.20
2023-04-21T04:26:55.860Z,95.90
2023-04-21T04:29:22.725Z,96.40
2023-04-21T04:31:52.544Z,96.70
2023-04-21T04:34:19.397Z,96.60
2023-04-21T04:36:46.459Z,96.50
2023-04-21T04:39:13.194Z,96.20
2023-04-21T04:41:39.988Z,96.30
2023-04-21T04:44:07.884Z,96.50
2023-04-21T04:46:34.794Z,96.20
2023-04-21T04:49:02.015Z,96.30
2023-04-21T04:51:28.886Z,96.40
2023-04-21T04:53:55.557Z,96.30
2023-04-21T04:56:22.343Z,96.40
2023-04-21T04:58:49.175Z,96.70
2023-04-21T05:01:16.850Z,96.10
2023-04-21T05:03:44.124Z,96.40
2023-04-21T05:06:11.044Z,96.50
2023-04-21T05:08:37.950Z,96.50
2023-04-21T05:11:04.796Z,96.40
2023-04-21T05:13:31.471Z,96.50
2023-04-21T05:15:58.795Z,96.60
2023-04-21T05:18:25.825Z,96.60
2023-04-21T05:20:52.650Z,96.30
2023-04-21T05:23:19.630Z,96.50
2023-04-21T05:25:46.679Z,96.60
2023-04-21T05:28:13.865Z,96.40
2023-04-21T05:30:40.993Z,96.60
2023-04-21T05:33:09.547Z,96.70
2023-04-21T05:35:38.049Z,96.60
2023-04-21T05:38:05.487Z,96.50
2023-04-21T05:40:32.354Z,96.60
2023-04-21T05:42:59.149Z,96.70
2023-04-21T05:45:25.951Z,96.50
2023-04-21T05:47:52.887Z,96.40
2023-04-21T05:50:19.712Z,96.60
2023-04-21T05:52:46.551Z,96.60
2023-04-21T05:55:13.345Z,96.70
2023-04-21T05:57:40.360Z,96.80
2023-04-21T06:00:07.542Z,96.70
2023-04-21T06:02:34.604Z,96.50
2023-04-21T06:05:01.776Z,96.80
2023-04-21T06:07:29.046Z,96.60
2023-04-21T06:09:57.864Z,96.90
2023-04-21T06:12:24.732Z,96.80
2023-04-21T06:14:51.712Z,96.70
2023-04-21T06:17:19.189Z,96.70
2023-04-21T06:19:46.100Z,97.00
2023-04-21T06:22:13.005Z,96.80
2023-04-21T06:24:39.883Z,96.70
2023-04-21T06:27:10.776Z,97.10
2023-04-21T06:29:37.441Z,97.10
2023-04-21T06:32:04.351Z,96.70
2023-04-21T06:34:31.204Z,96.80
2023-04-21T06:36:57.897Z,96.70
2023-04-21T06:39:24.718Z,97.00
2023-04-21T06:41:51.455Z,96.30
2023-04-21T06:44:18.797Z,96.00
2023-04-21T06:46:45.878Z,95.90
2023-04-21T06:49:13.146Z,96.50
2023-04-21T06:51:39.909Z,96.40
2023-04-21T06:54:07.021Z,96.80
2023-04-21T06:56:34.373Z,95.10
2023-04-21T06:59:01.182Z,94.60
2023-04-21T07:01:28.189Z,94.00
2023-04-21T07:03:55.260Z,93.50
2023-04-21T07:06:22.040Z,93.10
2023-04-21T07:08:48.845Z,92.70
2023-04-21T07:11:15.735Z,92.30
2023-04-21T07:16:53.018Z,91.80
2023-04-21T07:19:20.089Z,91.50
2023-04-21T07:21:47.146Z,91.20
2023-04-21T07:24:14.147Z,90.90
2023-04-21T07:26:40.956Z,90.80
2023-04-21T07:29:07.787Z,90.70
2023-04-21T07:31:34.920Z,90.50
2023-04-21T07:34:01.993Z,90.50
2023-04-21T07:36:31.049Z,90.60
2023-04-21T07:38:58.150Z,90.50
2023-04-21T07:41:24.891Z,90.60
2023-04-21T07:43:53.696Z,90.70
2023-04-21T07:46:21.728Z,90.70
2023-04-21T07:48:48.486Z,90.70
2023-04-21T07:51:17.973Z,90.80
2023-04-21T07:53:44.927Z,90.70
2023-04-21T07:56:13.121Z,90.70
2023-04-21T07:58:40.139Z,90.70
2023-04-21T08:01:07.125Z,90.70
2023-04-21T08:03:34.125Z,90.50
2023-04-21T08:06:01.924Z,90.60
2023-04-21T08:08:30.801Z,90.50
2023-04-21T08:10:58.705Z,90.60
2023-04-21T08:13:25.506Z,90.40
2023-04-21T08:15:52.871Z,90.30
2023-04-21T08:18:22.271Z,90.20
2023-04-21T08:20:49.425Z,90.20
2023-04-21T08:23:16.365Z,90.10
2023-04-21T08:25:43.154Z,90.20
2023-04-21T08:28:09.891Z,90.10
2023-04-21T08:30:36.720Z,90.20
2023-04-21T08:33:03.660Z,90.30
2023-04-21T08:35:30.650Z,90.40
2023-04-21T08:37:57.483Z,90.40
2023-04-21T08:40:29.866Z,90.40
2023-04-21T08:42:59.243Z,90.40
2023-04-21T08:45:27.728Z,90.40
2023-04-21T08:47:55.996Z,90.40
2023-04-21T08:50:25.252Z,90.20
2023-04-21T08:52:52.113Z,90.30
2023-04-21T08:55:18.879Z,90.40
2023-04-21T08:57:45.594Z,90.30
2023-04-21T09:00:12.894Z,90.30
2023-04-21T09:03:01.179Z,90.40
2023-04-21T09:05:29.994Z,90.40
2023-04-21T09:08:08.435Z,90.40
2023-04-21T09:10:55.518Z,90.30
2023-04-21T09:13:31.140Z,90.30
2023-04-21T09:15:58.101Z,90.30
2023-04-21T09:18:26.118Z,90.30
2023-04-21T09:21:13.120Z,90.40
2023-04-21T09:23:44.580Z,90.30
2023-04-21T09:26:11.780Z,90.20
2023-04-21T09:28:45.593Z,90.20
2023-04-21T09:31:24.851Z,90.10
2023-04-21T09:34:00.378Z,90.20
2023-04-21T09:36:30.366Z,90.40
2023-04-21T09:41:32.310Z,90.30
2023-04-21T09:44:01.770Z,90.30
2023-04-21T09:46:35.873Z,90.30
2023-04-21T09:49:03.263Z,90.30
2023-04-21T09:51:52.852Z,90.20
2023-04-21T09:54:28.895Z,90.00
2023-04-21T09:56:58.396Z,90.00
2023-04-21T09:59:26.065Z,89.80
2023-04-21T10:01:54.011Z,90.00
2023-04-21T10:04:22.885Z,89.90
2023-04-21T10:06:51.552Z,89.50
2023-04-21T10:09:20.396Z,89.80
2023-04-21T10:11:47.093Z,89.80
2023-04-21T10:14:14.007Z,89.90
2023-04-21T10:16:40.842Z,90.00
2023-04-21T10:19:25.555Z,90.00
2023-04-21T10:21:55.380Z,90.00
2023-04-21T10:24:22.350Z,90.00
2023-04-21T10:26:52.486Z,90.00
2023-04-21T10:29:30.040Z,90.00
2023-04-21T10:32:03.460Z,90.00
2023-04-21T10:34:34.855Z,90.00
2023-04-21T10:37:04.991Z,89.90
2023-04-21T10:39:42.821Z,89.70
2023-04-21T10:42:13.108Z,89.50
2023-04-21T10:44:43.461Z,89.70
2023-04-21T10:47:10.366Z,89.60
2023-04-21T10:49:40.518Z,89.70
2023-04-21T10:52:08.873Z,89.80
2023-04-21T10:54:41.769Z,89.70
2023-04-21T10:57:09.751Z,89.90
2023-04-21T10:59:36.643Z,90.00
2023-04-21T11:02:05.015Z,89.80
2023-04-21T11:04:32.585Z,89.50
2023-04-21T11:07:12.771Z,89.30
2023-04-21T11:09:40.361Z,89.00
2023-04-21T11:12:08.588Z,89.40
2023-04-21T11:14:36.755Z,89.50
2023-04-21T11:17:04.725Z,89.80
2023-04-21T11:19:34.734Z,89.70
2023-04-21T11:22:01.722Z,89.80
2023-04-21T11:24:28.546Z,89.50
2023-04-21T11:26:55.286Z,89.40
2023-04-21T11:29:22.421Z,89.20
2023-04-21T11:31:50.273Z,89.30
2023-04-21T11:34:20.207Z,89.50
2023-04-21T11:36:48.183Z,89.40
2023-04-21T11:39:16.542Z,89.30
2023-04-21T11:41:44.190Z,89.20
2023-04-21T11:44:11.642Z,89.10
2023-04-21T11:46:44.500Z,89.00
2023-04-21T11:49:12.292Z,88.90
2023-04-21T11:51:42.286Z,88.70
2023-04-21T11:54:13.443Z,88.90
2023-04-21T11:56:41.359Z,89.00
2023-04-21T11:59:08.886Z,89.00
2023-04-21T12:01:35.687Z,89.00
2023-04-21T12:04:03.643Z,88.90
2023-04-21T12:06:31.408Z,89.10
2023-04-21T12:09:02.023Z,88.90
2023-04-21T12:11:29.676Z,88.80
2023-04-21T12:13:57.511Z,88.70
2023-04-21T12:16:27.205Z,88.60
2023-04-21T12:18:54.415Z,88.60
2023-04-21T12:21:21.456Z,88.70
2023-04-21T12:23:48.313Z,89.00
2023-04-21T12:26:15.063Z,89.30
2023-04-21T12:28:41.813Z,89.90
2023-04-21T12:31:08.649Z,90.50
2023-04-21T12:33:35.415Z,90.80
2023-04-21T12:36:02.509Z,91.20
2023-04-21T12:38:29.221Z,91.40
2023-04-21T12:40:55.909Z,91.40
2023-04-21T12:43:22.755Z,91.00
2023-04-21T12:45:50.182Z,90.30
2023-04-21T12:48:16.985Z,89.50
2023-04-21T12:50:43.694Z,88.70
2023-04-21T12:53:10.563Z,88.10
2023-04-21T12:55:37.311Z,88.30
2023-04-21T12:58:04.137Z,88.50
2023-04-21T13:00:31.991Z,88.30
2023-04-21T13:02:58.861Z,88.20
2023-04-21T13:05:25.790Z,88.30
2023-04-21T13:07:52.926Z,88.50
2023-04-21T13:10:19.610Z,88.50
2023-04-21T13:12:46.278Z,88.30
2023-04-21T13:15:13.187Z,88.50
2023-04-21T13:17:40.593Z,88.20
2023-04-21T13:20:08.017Z,88.40
2023-04-21T13:22:35.775Z,88.10
2023-04-21T13:25:02.573Z,88.50
2023-04-21T13:27:29.292Z,88.90
2023-04-21T13:29:57.006Z,88.50
2023-04-21T13:32:23.765Z,88.50
2023-04-21T13:34:50.579Z,88.60
2023-04-21T13:37:17.372Z,88.80
2023-04-21T13:39:44.333Z,89.20
2023-04-21T13:42:11.484Z,90.10
2023-04-21T13:44:38.457Z,90.50
2023-04-21T13:47:07.488Z,90.90
2023-04-21T13:49:35.788Z,91.10
2023-04-21T13:52:02.791Z,91.10
2023-04-21T13:54:29.628Z,90.80
2023-04-21T13:56:57.168Z,90.50
2023-04-21T13:59:24.112Z,90.10
2023-04-21T14:01:50.831Z,89.50
2023-04-21T14:04:18.112Z,88.90
2023-04-21T14:06:45.188Z,89.40
2023-04-21T14:09:12.006Z,88.70
2023-04-21T14:11:38.689Z,88.70
2023-04-21T14:14:09.979Z,88.30
2023-04-21T14:16:37.666Z,88.30
2023-04-21T14:19:04.580Z,88.40
2023-04-21T14:21:32.454Z,88.00
2023-04-21T14:23:59.470Z,88.20
2023-04-21T14:26:26.450Z,88.60
2023-04-21T14:28:53.326Z,88.90
2023-04-21T14:31:22.024Z,89.60
2023-04-21T14:33:49.276Z,90.30
2023-04-21T14:36:16.258Z,90.70
2023-04-21T14:38:43.259Z,90.90
2023-04-21T14:41:10.125Z,91.00
2023-04-21T14:43:37.006Z,90.70
2023-04-21T14:46:03.844Z,90.40
2023-04-21T14:48:30.816Z,90.00
2023-04-21T14:51:01.104Z,89.70
2023-04-21T14:53:27.862Z,89.20
2023-04-21T14:55:54.867Z,89.00
2023-04-21T14:58:21.726Z,88.80
2023-04-21T15:00:48.715Z,89.00
2023-04-21T15:03:15.841Z,88.60
2023-04-21T15:05:42.930Z,89.00
2023-04-21T15:08:10.143Z,88.90
2023-04-21T15:10:36.878Z,88.50
2023-04-21T15:13:03.841Z,88.20
2023-04-21T15:15:30.619Z,88.40
2023-04-21T15:17:57.409Z,88.50
2023-04-21T15:20:36.554Z,88.70
2023-04-21T15:23:11.760Z,88.80
2023-04-21T15:25:39.989Z,89.70
2023-04-21T15:28:09.769Z,90.40
2023-04-21T15:30:36.704Z,90.90
2023-04-21T15:33:04.254Z,91.20
2023-04-21T15:35:31.162Z,91.40
2023-04-21T15:37:57.832Z,91.20
2023-04-21T15:40:24.804Z,90.80
2023-04-21T15:42:51.617Z,90.40
2023-04-21T15:45:18.434Z,90.00
2023-04-21T15:47:45.584Z,89.50
2023-04-21T15:50:12.738Z,89.00
2023-04-21T15:52:43.214Z,88.80
2023-04-21T15:55:13.264Z,88.70
2023-04-21T15:57:40.007Z,88.90
2023-04-21T16:00:07.470Z,88.60
2023-04-21T16:02:34.741Z,88.90
2023-04-21T16:05:02.367Z,89.00
2023-04-21T16:07:29.457Z,88.90
2023-04-21T16:09:56.521Z,89.20
2023-04-21T16:12:23.295Z,90.00
2023-04-21T16:14:57.592Z,90.60
2023-04-21T16:17:28.617Z,90.90
2023-04-21T16:19:55.557Z,91.30
2023-04-21T16:22:22.423Z,91.40
2023-04-21T16:24:49.934Z,91.10
2023-04-21T16:27:16.746Z,90.70
2023-04-21T16:29:43.467Z,90.20
2023-04-21T16:32:10.262Z,89.80
2023-04-21T16:34:37.535Z,89.60
2023-04-21T16:37:04.716Z,89.30
2023-04-21T16:39:31.686Z,88.90
2023-04-21T16:41:59.041Z,88.60
2023-04-21T16:44:25.905Z,88.60
2023-04-21T16:46:52.756Z,88.60
2023-04-21T16:49:19.465Z,88.40
2023-04-21T16:51:46.227Z,88.70
2023-04-21T16:54:13.843Z,89.20
2023-04-21T16:56:40.681Z,89.70
2023-04-21T16:59:07.361Z,90.40
2023-04-21T17:01:34.179Z,90.80
2023-04-21T17:04:01.669Z,91.00
2023-04-21T17:06:28.639Z,91.40
2023-04-21T17:08:59.799Z,91.30
2023-04-21T17:11:27.516Z,90.90
2023-04-21T17:13:54.816Z,90.50
2023-04-21T17:16:21.608Z,90.20
2023-04-21T17:18:48.355Z,90.10
2023-04-21T17:21:15.072Z,89.70
2023-04-21T17:23:41.920Z,89.50
2023-04-21T17:26:10.754Z,89.30
2023-04-21T17:28:39.436Z,89.50
2023-04-21T17:31:15.093Z,89.30
2023-04-21T17:33:43.144Z,89.30
2023-04-21T17:36:10.207Z,89.50
2023-04-21T17:38:37.207Z,89.60
2023-04-21T17:41:06.762Z,90.00
2023-04-21T17:43:33.633Z,90.40
2023-04-21T17:46:00.482Z,90.90
2023-04-21T17:48:27.466Z,91.10
2023-04-21T17:50:54.293Z,91.30
2023-04-21T17:53:21.354Z,91.50
2023-04-21T17:55:48.016Z,91.10
2023-04-21T17:58:14.814Z,90.80
2023-04-21T18:00:41.526Z,90.40
2023-04-21T18:03:08.594Z,90.20
2023-04-21T18:05:35.848Z,90.10
2023-04-21T18:08:03.009Z,89.60
2023-04-21T18:10:30.075Z,89.20
2023-04-21T18:12:57.326Z,89.20
2023-04-21T18:15:24.192Z,89.10
2023-04-21T18:17:52.979Z,89.20
2023-04-21T18:20:20.186Z,89.30
2023-04-21T18:22:47.444Z,89.20
2023-04-21T18:25:14.403Z,88.80
2023-04-21T18:27:41.285Z,88.80
2023-04-21T18:30:11.188Z,89.10
2023-04-21T18:32:38.004Z,89.60
2023-04-21T18:35:06.186Z,90.50
2023-04-21T18:37:33.326Z,90.80
2023-04-21T18:40:00.171Z,91.10
2023-04-21T18:42:27.034Z,91.30
2023-04-21T18:44:57.010Z,91.50
2023-04-21T18:47:24.667Z,91.30
2023-04-21T18:49:51.813Z,91.00
2023-04-21T18:52:18.528Z,90.50
2023-04-21T18:54:45.264Z,90.20
2023-04-21T18:57:12.756Z,90.00
2023-04-21T18:59:39.602Z,89.70
2023-04-21T19:02:07.441Z,89.70
2023-04-21T19:04:34.897Z,89.60
2023-04-21T19:07:02.007Z,89.60
2023-04-21T19:09:28.852Z,89.60
2023-04-21T19:11:55.679Z,89.70
2023-04-21T19:14:22.545Z,90.00
2023-04-21T19:16:50.741Z,90.50
2023-04-21T19:19:19.539Z,90.80
2023-04-21T19:21:46.328Z,91.10
2023-04-21T19:24:13.127Z,91.40
2023-04-21T19:26:40.158Z,91.70
2023-04-21T19:29:11.568Z,91.80
2023-04-21T19:31:38.585Z,91.40
2023-04-21T19:34:05.483Z,90.90
2023-04-21T19:36:32.428Z,90.60
2023-04-21T19:38:59.292Z,90.40
2023-04-21T19:41:26.119Z,90.30
2023-04-21T19:43:52.902Z,90.10
2023-04-21T19:46:19.647Z,90.00
2023-04-21T19:48:46.503Z,89.90
2023-04-21T19:51:13.189Z,89.70
2023-04-21T19:53:39.899Z,89.80
2023-04-21T19:56:06.902Z,90.00
2023-04-21T20:01:05.571Z,90.80
2023-04-21T20:03:33.249Z,91.40
2023-04-21T20:06:01.716Z,91.50
2023-04-21T20:08:29.168Z,91.80
2023-04-21T20:10:56.000Z,91.90
2023-04-21T20:13:22.809Z,92.00
2023-04-21T20:15:49.655Z,92.10
2023-04-21T20:18:17.027Z,92.20
2023-04-21T20:20:43.998Z,92.20
2023-04-21T20:23:10.744Z,92.30
2023-04-21T20:25:37.611Z,92.30
2023-04-21T20:28:05.926Z,92.40
2023-04-21T20:30:32.682Z,92.40
2023-04-21T20:32:59.596Z,92.40
2023-04-21T20:35:26.467Z,92.50
2023-04-21T20:37:53.539Z,92.50
2023-04-21T20:40:21.779Z,92.60
2023-04-21T20:42:48.639Z,92.60
2023-04-21T20:45:17.355Z,92.60
2023-04-21T20:47:44.379Z,92.70
2023-04-21T20:50:11.797Z,92.70
2023-04-21T20:52:38.536Z,92.80
2023-04-21T20:55:05.495Z,92.70
2023-04-21T20:57:33.008Z,92.80
2023-04-21T20:59:59.700Z,92.80
2023-04-21T21:02:26.788Z,92.90
2023-04-21T21:04:53.580Z,92.90
2023-04-21T21:07:20.331Z,93.00
2023-04-21T21:09:47.073Z,93.00
2023-04-21T21:12:13.846Z,93.00
2023-04-21T21:14:40.677Z,93.00
2023-04-21T21:17:08.298Z,93.10
2023-04-21T21:19:35.460Z,93.10
2023-04-21T21:22:02.494Z,93.10
2023-04-21T21:24:29.270Z,93.10
2023-04-21T21:26:57.288Z,93.20
2023-04-21T21:29:24.307Z,93.20
2023-04-21T21:31:51.142Z,93.20
2023-04-21T21:34:18.133Z,93.20
2023-04-21T21:36:44.975Z,93.20
2023-04-21T21:39:11.762Z,93.30
2023-04-21T21:41:38.748Z,93.60
2023-04-21T21:44:06.477Z,93.30
2023-04-21T21:46:33.452Z,93.40
2023-04-21T21:49:00.409Z,93.40
2023-04-21T21:51:28.953Z,93.40
2023-04-21T21:53:55.845Z,93.40
2023-04-21T21:56:24.159Z,93.50
2023-04-21T21:58:50.935Z,93.50
2023-04-21T22:01:18.326Z,93.50
2023-04-21T22:03:45.261Z,93.90
2023-04-21T22:06:14.879Z,93.60
2023-04-21T22:08:43.679Z,93.60
2023-04-21T22:11:10.433Z,93.60
2023-04-21T22:13:37.257Z,93.70
2023-04-21T22:16:04.206Z,93.70
2023-04-21T22:18:31.065Z,93.70
2023-04-21T22:20:59.104Z,93.70
2023-04-21T22:23:26.147Z,93.70
2023-04-21T22:25:53.089Z,93.70
2023-04-21T22:28:19.799Z,93.70
2023-04-21T22:30:46.679Z,93.80
2023-04-21T22:33:13.555Z,93.80
2023-04-21T22:35:40.474Z,93.80
2023-04-21T22:38:07.300Z,93.80
2023-04-21T22:40:34.026Z,93.80
2023-04-21T22:43:00.970Z,93.80
2023-04-21T22:45:27.919Z,93.90
2023-04-21T22:47:56.174Z,93.90
2023-04-21T22:50:22.942Z,93.80
2023-04-21T22:52:49.876Z,93.90
2023-04-21T22:55:16.575Z,93.90
2023-04-21T22:57:43.420Z,93.90
2023-04-21T23:00:11.146Z,93.90
2023-04-21T23:02:38.087Z,93.90
2023-04-21T23:05:05.456Z,93.90
2023-04-21T23:07:32.270Z,93.90
2023-04-21T23:09:59.310Z,93.90
2023-04-21T23:12:26.313Z,93.90
2023-04-21T23:14:53.364Z,93.90
2023-04-21T23:17:20.358Z,94.00
2023-04-21T23:19:47.358Z,93.90
2023-04-21T23:22:14.832Z,93.90
2023-04-21T23:24:41.772Z,94.00
2023-04-21T23:27:08.437Z,94.10
2023-04-21T23:29:35.511Z,94.00
2023-04-21T23:32:02.457Z,94.10
2023-04-21T23:34:29.374Z,94.00
2023-04-21T23:36:56.242Z,94.00
2023-04-21T23:39:23.201Z,94.00
2023-04-21T23:41:50.163Z,94.10
2023-04-21T23:44:17.116Z,94.10
2023-04-21T23:46:43.818Z,94.10
2023-04-21T23:49:11.603Z,94.10
2023-04-21T23:51:38.600Z,94.10
2023-04-21T23:54:05.485Z,94.10
2023-04-21T23:56:32.346Z,94.20
2023-04-21T23:58:59.258Z,94.20
